createdAt,value
2023-05-15T00:00:49.472Z,99.90
2023-05-15T00:03:18.007Z,99.90
2023-05-15T00:05:49.305Z,99.90
2023-05-15T00:08:19.445Z,99.90
2023-05-15T00:10:59.747Z,99.90
2023-05-15T00:13:30.597Z,99.90
2023-05-15T00:15:57.775Z,99.90
2023-05-15T00:18:24.908Z,99.90
2023-05-15T00:20:52.927Z,99.90
2023-05-15T00:23:20.077Z,99.90
2023-05-15T00:25:47.402Z,99.90
2023-05-15T00:28:14.550Z,99.90
2023-05-15T00:30:41.984Z,99.90
2023-05-15T00:33:09.155Z,99.90
2023-05-15T00:35:37.698Z,99.90
2023-05-15T00:38:07.833Z,99.90
2023-05-15T00:40:38.021Z,99.90
2023-05-15T00:43:05.503Z,99.90
2023-05-15T00:45:32.969Z,99.90
2023-05-15T00:48:01.045Z,99.90
2023-05-15T00:50:28.258Z,99.90
2023-05-15T00:52:56.006Z,99.90
2023-05-15T00:55:23.450Z,99.90
2023-05-15T00:57:51.796Z,99.90
2023-05-15T01:00:19.022Z,99.90
2023-05-15T01:02:46.466Z,99.90
2023-05-15T01:05:16.810Z,99.90
2023-05-15T01:07:47.507Z,99.90
2023-05-15T01:10:15.433Z,99.90
2023-05-15T01:12:43.437Z,99.90
2023-05-15T01:15:10.581Z,99.90
2023-05-15T01:17:37.529Z,99.90
2023-05-15T01:20:06.421Z,99.90
2023-05-15T01:22:51.527Z,99.90
2023-05-15T01:25:41.010Z,99.90
2023-05-15T01:28:09.537Z,99.90
2023-05-15T01:30:38.453Z,99.90
2023-05-15T01:33:26.072Z,99.90
2023-05-15T01:36:00.066Z,99.90
2023-05-15T01:38:27.626Z,99.90
2023-05-15T01:40:57.933Z,99.90
2023-05-15T01:43:27.474Z,99.90
2023-05-15T01:45:55.215Z,99.90
2023-05-15T01:48:22.729Z,99.90
2023-05-15T01:50:51.073Z,99.90
2023-05-15T01:53:18.816Z,99.90
2023-05-15T01:55:46.178Z,99.90
2023-05-15T01:58:13.973Z,99.90
2023-05-15T02:00:41.713Z,99.90
2023-05-15T02:03:08.709Z,99.90
2023-05-15T02:05:35.737Z,99.90
2023-05-15T02:08:03.856Z,99.90
2023-05-15T02:10:31.918Z,99.90
2023-05-15T02:12:58.959Z,99.90
2023-05-15T02:15:26.862Z,99.90
2023-05-15T02:17:53.728Z,99.90
2023-05-15T02:20:22.096Z,99.90
2023-05-15T02:22:48.771Z,99.90
2023-05-15T02:25:16.046Z,99.90
2023-05-15T02:27:51.456Z,99.90
2023-05-15T02:30:37.068Z,99.90
2023-05-15T02:33:05.195Z,99.90
2023-05-15T02:35:35.079Z,99.90
2023-05-15T02:38:03.549Z,99.90
2023-05-15T02:40:30.695Z,99.90
2023-05-15T02:42:58.276Z,99.90
2023-05-15T02:45:25.977Z,99.90
2023-05-15T02:47:53.409Z,99.90
2023-05-15T02:50:20.392Z,99.90
2023-05-15T02:52:47.028Z,99.90
2023-05-15T02:55:13.671Z,99.90
2023-05-15T02:57:40.476Z,99.90
2023-05-15T03:00:11.708Z,99.90
2023-05-15T03:02:38.440Z,99.90
2023-05-15T03:05:06.561Z,99.90
2023-05-15T03:07:33.436Z,99.90
2023-05-15T03:10:00.165Z,99.90
2023-05-15T03:12:26.901Z,99.90
2023-05-15T03:14:53.531Z,99.90
2023-05-15T03:17:20.193Z,99.90
2023-05-15T03:19:47.041Z,99.90
2023-05-15T03:22:13.898Z,99.90
2023-05-15T03:24:40.760Z,99.90
2023-05-15T03:27:07.407Z,99.90
2023-05-15T03:29:34.183Z,99.90
2023-05-15T03:32:00.865Z,99.90
2023-05-15T03:34:27.604Z,99.90
2023-05-15T03:36:54.224Z,99.90
2023-05-15T03:39:20.866Z,99.90
2023-05-15T03:41:49.054Z,99.90
2023-05-15T03:44:15.745Z,99.90
2023-05-15T03:46:42.719Z,99.90
2023-05-15T03:49:10.961Z,99.90
2023-05-15T03:51:37.648Z,99.90
2023-05-15T03:54:05.600Z,99.90
2023-05-15T03:56:32.708Z,99.90
2023-05-15T03:58:59.580Z,99.90
2023-05-15T04:01:26.290Z,99.90
2023-05-15T04:03:53.011Z,99.90
2023-05-15T04:06:19.985Z,99.90
2023-05-15T04:08:46.578Z,99.90
2023-05-15T04:11:13.223Z,99.90
2023-05-15T04:13:39.807Z,99.90
2023-05-15T04:16:07.266Z,99.90
2023-05-15T04:18:34.153Z,99.90
2023-05-15T04:21:00.853Z,99.90
2023-05-15T04:23:27.545Z,99.90
2023-05-15T04:25:54.958Z,99.90
2023-05-15T04:28:21.767Z,99.90
2023-05-15T04:30:48.383Z,99.90
2023-05-15T04:33:15.153Z,99.90
2023-05-15T04:35:45.328Z,99.90
2023-05-15T04:38:12.078Z,99.90
2023-05-15T04:40:38.802Z,99.90
2023-05-15T04:43:05.856Z,99.90
2023-05-15T04:45:32.914Z,99.90
2023-05-15T04:47:59.708Z,99.90
2023-05-15T04:50:26.706Z,99.90
2023-05-15T04:52:54.055Z,99.90
2023-05-15T04:55:20.927Z,99.90
2023-05-15T04:57:48.003Z,99.90
2023-05-15T05:00:15.233Z,99.90
2023-05-15T05:02:43.416Z,99.90
2023-05-15T05:05:10.426Z,99.90
2023-05-15T05:07:37.127Z,99.90
2023-05-15T05:10:04.293Z,99.90
2023-05-15T05:12:30.937Z,99.90
2023-05-15T05:14:57.775Z,99.90
2023-05-15T05:17:24.669Z,99.90
2023-05-15T05:19:51.347Z,99.90
2023-05-15T05:22:18.195Z,99.90
2023-05-15T05:24:45.055Z,99.90
2023-05-15T05:27:11.897Z,99.90
2023-05-15T05:29:39.972Z,99.90
2023-05-15T05:32:07.550Z,99.90
2023-05-15T05:34:34.416Z,99.90
2023-05-15T05:37:02.456Z,99.90
2023-05-15T05:39:30.168Z,99.90
2023-05-15T05:41:56.776Z,99.90
2023-05-15T05:44:23.681Z,99.90
2023-05-15T05:46:50.435Z,99.90
2023-05-15T05:49:17.200Z,99.90
2023-05-15T05:51:45.150Z,99.90
2023-05-15T05:54:12.005Z,99.90
2023-05-15T05:56:38.617Z,99.90
2023-05-15T05:59:06.437Z,99.90
2023-05-15T06:01:33.125Z,99.90
2023-05-15T06:03:59.915Z,99.90
2023-05-15T06:06:26.633Z,99.90
2023-05-15T06:08:55.572Z,99.90
2023-05-15T06:11:25.106Z,99.90
2023-05-15T06:13:52.611Z,99.90
2023-05-15T06:16:19.316Z,99.90
2023-05-15T06:18:45.945Z,99.90
2023-05-15T06:21:12.693Z,99.90
2023-05-15T06:23:39.366Z,99.90
2023-05-15T06:26:06.083Z,99.90
2023-05-15T06:28:32.818Z,99.90
2023-05-15T06:30:59.775Z,99.90
2023-05-15T06:33:26.722Z,99.90
2023-05-15T06:35:53.561Z,99.90
2023-05-15T06:38:20.300Z,99.90
2023-05-15T06:40:47.224Z,99.90
2023-05-15T06:43:13.991Z,99.90
2023-05-15T06:45:40.764Z,99.90
2023-05-15T06:48:07.544Z,99.90
2023-05-15T06:50:34.574Z,99.90
2023-05-15T06:53:01.323Z,99.90
2023-05-15T06:55:28.180Z,99.90
2023-05-15T06:57:54.860Z,99.90
2023-05-15T07:00:21.653Z,99.90
2023-05-15T07:02:48.703Z,99.90
2023-05-15T07:05:15.526Z,99.90
2023-05-15T07:07:42.875Z,99.90
2023-05-15T07:10:09.626Z,99.90
2023-05-15T07:12:36.501Z,99.90
2023-05-15T07:15:03.770Z,99.90
2023-05-15T07:17:31.851Z,99.90
2023-05-15T07:19:58.605Z,99.90
2023-05-15T07:22:27.347Z,99.90
2023-05-15T07:24:54.393Z,99.90
2023-05-15T07:27:23.741Z,99.90
2023-05-15T07:29:51.294Z,99.90
2023-05-15T07:32:18.092Z,99.90
2023-05-15T07:34:44.791Z,99.90
2023-05-15T07:37:11.983Z,99.90
2023-05-15T07:39:38.798Z,99.90
2023-05-15T07:42:05.641Z,99.90
2023-05-15T07:44:32.398Z,99.90
2023-05-15T07:46:59.104Z,99.90
2023-05-15T07:49:25.750Z,99.90
2023-05-15T07:51:52.561Z,99.90
2023-05-15T07:54:19.333Z,99.90
2023-05-15T07:56:46.032Z,99.90
2023-05-15T07:59:12.709Z,99.90
2023-05-15T08:01:39.454Z,99.90
2023-05-15T08:04:06.992Z,99.90
2023-05-15T08:06:33.738Z,99.90
2023-05-15T08:09:00.696Z,99.90
2023-05-15T08:11:27.366Z,99.90
2023-05-15T08:13:54.192Z,99.90
2023-05-15T08:16:21.100Z,99.90
2023-05-15T08:18:48.009Z,99.90
2023-05-15T08:21:15.174Z,99.90
2023-05-15T08:23:41.907Z,99.90
2023-05-15T08:26:08.808Z,99.90
2023-05-15T08:28:35.501Z,99.90
2023-05-15T08:31:02.293Z,99.90
2023-05-15T08:33:29.074Z,99.60
2023-05-15T08:35:55.860Z,98.40
2023-05-15T08:38:22.864Z,96.60
2023-05-15T08:40:50.591Z,96.10
2023-05-15T08:43:18.047Z,96.30
2023-05-15T08:45:44.775Z,96.30
2023-05-15T08:48:13.987Z,96.20
2023-05-15T08:50:44.167Z,95.40
2023-05-15T08:53:12.427Z,94.80
2023-05-15T08:55:39.610Z,94.10
2023-05-15T08:58:07.303Z,93.00
2023-05-15T09:00:35.036Z,93.00
2023-05-15T09:03:02.173Z,92.40
2023-05-15T09:05:29.480Z,91.90
2023-05-15T09:07:56.982Z,91.70
2023-05-15T09:10:26.819Z,91.00
2023-05-15T09:12:54.587Z,90.10
2023-05-15T09:15:23.158Z,89.40
2023-05-15T09:17:50.437Z,88.60
2023-05-15T09:20:26.784Z,88.60
2023-05-15T09:22:53.914Z,87.20
2023-05-15T09:25:34.529Z,87.10
2023-05-15T09:28:01.457Z,85.80
2023-05-15T09:30:28.345Z,84.90
2023-05-15T09:32:56.428Z,84.00
2023-05-15T09:35:37.262Z,84.00
2023-05-15T09:38:11.419Z,83.50
2023-05-15T09:40:38.791Z,83.00
2023-05-15T09:43:05.965Z,82.50
2023-05-15T09:45:32.665Z,83.50
2023-05-15T09:47:59.975Z,85.10
2023-05-15T09:50:33.338Z,85.80
2023-05-15T09:53:00.265Z,84.30
2023-05-15T09:55:27.630Z,82.20
2023-05-15T09:58:05.616Z,82.00
2023-05-15T10:00:33.068Z,81.00
2023-05-15T10:03:01.480Z,80.60
2023-05-15T10:05:42.076Z,79.90
2023-05-15T10:08:09.949Z,79.30
2023-05-15T10:10:36.756Z,78.40
2023-05-15T10:13:05.779Z,79.70
2023-05-15T10:15:32.683Z,80.60
2023-05-15T10:18:00.254Z,82.50
2023-05-15T10:20:27.322Z,81.60
2023-05-15T10:22:59.170Z,82.60
2023-05-15T10:25:41.368Z,85.20
2023-05-15T10:28:09.136Z,86.40
2023-05-15T10:30:36.510Z,86.70
2023-05-15T10:33:06.662Z,88.80
2023-05-15T10:35:37.495Z,90.00
2023-05-15T10:38:05.222Z,90.20
2023-05-15T10:40:32.715Z,90.20
2023-05-15T10:43:00.314Z,90.50
2023-05-15T10:45:27.332Z,90.90
2023-05-15T10:47:54.191Z,91.10
2023-05-15T10:50:21.144Z,91.50
2023-05-15T10:52:50.465Z,91.90
2023-05-15T10:55:17.827Z,92.00
2023-05-15T10:57:47.800Z,92.10
2023-05-15T11:00:24.049Z,92.50
2023-05-15T11:02:53.646Z,91.70
2023-05-15T11:05:20.653Z,91.20
2023-05-15T11:08:06.309Z,91.30
2023-05-15T11:10:36.715Z,91.60
2023-05-15T11:13:04.434Z,92.00
2023-05-15T11:15:44.585Z,92.10
2023-05-15T11:18:11.594Z,92.70
2023-05-15T11:20:51.988Z,92.90
2023-05-15T11:23:22.212Z,93.10
2023-05-15T11:25:58.725Z,93.80
2023-05-15T11:28:25.921Z,93.30
2023-05-15T11:30:53.270Z,91.80
2023-05-15T11:33:20.627Z,90.10
2023-05-15T11:35:47.972Z,87.80
2023-05-15T11:38:14.660Z,86.10
2023-05-15T11:40:52.775Z,85.40
2023-05-15T11:43:22.591Z,86.00
2023-05-15T11:45:57.794Z,86.30
2023-05-15T11:48:25.703Z,86.50
2023-05-15T11:50:55.345Z,85.70
2023-05-15T11:53:23.943Z,87.10
2023-05-15T11:55:52.619Z,87.20
2023-05-15T11:58:20.193Z,87.00
2023-05-15T12:00:47.675Z,87.80
2023-05-15T12:03:24.394Z,87.90
2023-05-15T12:05:58.926Z,87.60
2023-05-15T12:08:27.013Z,87.60
2023-05-15T12:10:53.688Z,88.90
2023-05-15T12:13:21.062Z,89.00
2023-05-15T12:15:48.096Z,89.40
2023-05-15T12:18:14.841Z,88.80
2023-05-15T12:20:48.298Z,88.00
2023-05-15T12:23:16.381Z,86.80
2023-05-15T12:25:44.630Z,80.80
2023-05-15T12:28:11.823Z,76.50
2023-05-15T12:30:39.122Z,74.40
2023-05-15T12:33:07.128Z,72.80
2023-05-15T12:35:34.934Z,70.80
2023-05-15T12:38:05.215Z,67.90
2023-05-15T12:40:35.778Z,64.80
2023-05-15T12:43:06.236Z,62.70
2023-05-15T12:45:37.404Z,63.20
2023-05-15T12:48:04.955Z,64.20
2023-05-15T12:50:32.692Z,66.40
2023-05-15T12:53:02.364Z,64.50
2023-05-15T12:55:33.389Z,62.80
2023-05-15T12:58:02.268Z,64.30
2023-05-15T13:00:29.223Z,66.10
2023-05-15T13:02:56.845Z,67.50
2023-05-15T13:05:24.069Z,68.80
2023-05-15T13:07:52.238Z,68.00
2023-05-15T13:10:23.745Z,69.30
2023-05-15T13:12:54.016Z,68.70
2023-05-15T13:15:29.902Z,68.30
2023-05-15T13:18:07.431Z,68.50
2023-05-15T13:20:35.612Z,69.30
2023-05-15T13:23:02.308Z,68.60
2023-05-15T13:25:31.366Z,69.50
2023-05-15T13:28:00.220Z,71.30
2023-05-15T13:30:28.045Z,71.40
2023-05-15T13:32:55.637Z,73.10
2023-05-15T13:35:22.865Z,73.10
2023-05-15T13:37:50.356Z,79.60
2023-05-15T13:40:19.606Z,81.90
2023-05-15T13:42:46.312Z,84.20
2023-05-15T13:45:13.644Z,87.00
2023-05-15T13:47:40.415Z,90.60
2023-05-15T13:50:07.713Z,90.10
2023-05-15T13:52:34.873Z,90.60
2023-05-15T13:55:02.032Z,91.20
2023-05-15T13:57:28.868Z,92.40
2023-05-15T13:59:55.639Z,91.20
2023-05-15T14:02:26.136Z,90.90
2023-05-15T14:04:53.386Z,89.70
2023-05-15T14:07:23.954Z,88.50
2023-05-15T14:09:50.968Z,88.60
2023-05-15T14:12:17.858Z,89.40
2023-05-15T14:14:48.051Z,90.20
2023-05-15T14:17:15.040Z,90.00
2023-05-15T14:19:41.743Z,90.40
2023-05-15T14:22:08.615Z,90.70
2023-05-15T14:24:35.310Z,91.10
2023-05-15T14:27:01.994Z,91.50
2023-05-15T14:29:28.696Z,90.90
2023-05-15T14:31:55.473Z,90.60
2023-05-15T14:34:23.550Z,90.40
2023-05-15T14:36:50.846Z,90.30
2023-05-15T14:39:17.822Z,91.40
2023-05-15T14:41:44.970Z,90.80
2023-05-15T14:44:11.682Z,90.90
2023-05-15T14:46:38.552Z,91.70
2023-05-15T14:49:05.278Z,92.20
2023-05-15T14:51:32.417Z,93.00
2023-05-15T14:53:59.025Z,91.90
2023-05-15T14:56:26.023Z,91.30
2023-05-15T14:58:53.787Z,91.40
2023-05-15T15:01:20.762Z,92.30
2023-05-15T15:03:48.044Z,92.30
2023-05-15T15:06:14.854Z,92.20
2023-05-15T15:08:41.645Z,91.90
2023-05-15T15:11:08.718Z,92.50
2023-05-15T15:13:35.415Z,92.80
2023-05-15T15:16:02.285Z,92.80
2023-05-15T15:18:28.997Z,93.10
2023-05-15T15:20:55.726Z,93.00
2023-05-15T15:23:22.634Z,93.10
2023-05-15T15:25:49.310Z,93.00
2023-05-15T15:28:15.943Z,92.40
2023-05-15T15:30:42.787Z,92.20
2023-05-15T15:33:09.647Z,92.10
2023-05-15T15:35:36.534Z,91.90
2023-05-15T15:38:03.604Z,92.20
2023-05-15T15:40:30.381Z,92.10
2023-05-15T15:42:57.003Z,92.30
2023-05-15T15:45:23.740Z,92.10
2023-05-15T15:47:50.523Z,92.10
2023-05-15T15:50:17.271Z,92.20
2023-05-15T15:52:44.002Z,92.60
2023-05-15T15:55:10.915Z,93.10
2023-05-15T15:57:37.925Z,93.10
2023-05-15T16:00:05.556Z,92.70
2023-05-15T16:02:33.108Z,92.90
2023-05-15T16:05:00.042Z,92.40
2023-05-15T16:07:27.136Z,92.00
2023-05-15T16:10:10.101Z,91.40
2023-05-15T16:12:40.609Z,91.10
2023-05-15T16:15:21.056Z,91.10
2023-05-15T16:17:50.676Z,90.80
2023-05-15T16:20:17.424Z,90.40
2023-05-15T16:22:44.271Z,90.40
2023-05-15T16:25:11.055Z,90.50
2023-05-15T16:27:37.791Z,90.30
2023-05-15T16:30:09.206Z,90.20
2023-05-15T16:32:36.372Z,90.10
2023-05-15T16:35:03.415Z,90.20
2023-05-15T16:37:33.437Z,90.20
2023-05-15T16:40:00.773Z,89.50
2023-05-15T16:42:27.716Z,90.00
2023-05-15T16:44:54.726Z,89.90
2023-05-15T16:47:21.560Z,89.70
2023-05-15T16:49:49.970Z,90.10
2023-05-15T16:52:18.472Z,89.80
2023-05-15T16:54:45.247Z,89.70
2023-05-15T16:57:11.917Z,90.00
2023-05-15T16:59:38.646Z,90.00
2023-05-15T17:02:05.328Z,90.20
2023-05-15T17:04:34.991Z,90.00
2023-05-15T17:07:01.839Z,90.10
2023-05-15T17:09:28.505Z,90.20
2023-05-15T17:11:55.436Z,90.10
2023-05-15T17:14:22.646Z,90.40
2023-05-15T17:16:49.400Z,90.60
2023-05-15T17:19:16.262Z,90.70
2023-05-15T17:21:43.088Z,90.90
2023-05-15T17:24:10.047Z,90.90
2023-05-15T17:26:36.692Z,91.20
2023-05-15T17:29:03.335Z,90.70
2023-05-15T17:31:30.258Z,90.80
2023-05-15T17:33:56.959Z,90.40
2023-05-15T17:36:23.738Z,91.50
2023-05-15T17:38:50.426Z,92.00
2023-05-15T17:41:17.500Z,92.60
2023-05-15T17:43:44.674Z,92.40
2023-05-15T17:46:11.343Z,92.50
2023-05-15T17:48:38.367Z,93.00
2023-05-15T17:51:05.004Z,93.40
2023-05-15T17:53:33.044Z,93.70
2023-05-15T17:56:01.093Z,94.00
2023-05-15T17:58:27.782Z,94.00
2023-05-15T18:00:54.404Z,94.30
2023-05-15T18:03:21.303Z,94.30
2023-05-15T18:05:48.179Z,94.10
2023-05-15T18:08:14.926Z,93.80
2023-05-15T18:10:41.628Z,93.90
2023-05-15T18:13:08.315Z,93.90
2023-05-15T18:15:38.044Z,94.10
2023-05-15T18:18:05.100Z,94.30
2023-05-15T18:20:31.833Z,94.80
2023-05-15T18:22:58.457Z,94.80
2023-05-15T18:25:25.458Z,94.90
2023-05-15T18:27:52.415Z,95.10
2023-05-15T18:30:19.088Z,95.50
2023-05-15T18:32:45.880Z,95.60
2023-05-15T18:35:12.600Z,96.00
2023-05-15T18:37:39.256Z,96.60
2023-05-15T18:40:06.201Z,97.50
2023-05-15T18:42:32.918Z,98.40
2023-05-15T18:44:59.661Z,99.90
2023-05-15T18:47:26.890Z,99.90
2023-05-15T18:49:53.598Z,99.90
2023-05-15T18:52:21.319Z,99.90
2023-05-15T18:54:48.122Z,99.90
2023-05-15T18:57:14.768Z,99.90
2023-05-15T18:59:41.926Z,99.90
2023-05-15T19:02:09.800Z,99.90
2023-05-15T19:04:36.596Z,99.90
2023-05-15T19:07:03.364Z,99.90
2023-05-15T19:09:30.061Z,99.90
2023-05-15T19:11:56.764Z,99.90
2023-05-15T19:14:23.456Z,99.90
2023-05-15T19:16:50.185Z,99.90
2023-05-15T19:19:17.598Z,99.90
2023-05-15T19:21:44.441Z,99.90
2023-05-15T19:24:11.494Z,99.90
2023-05-15T19:26:38.185Z,99.90
2023-05-15T19:29:04.944Z,99.90
2023-05-15T19:31:32.512Z,99.90
2023-05-15T19:33:59.757Z,99.90
2023-05-15T19:36:26.857Z,99.90
2023-05-15T19:38:53.489Z,99.90
2023-05-15T19:41:21.577Z,99.90
2023-05-15T19:43:50.503Z,99.90
2023-05-15T19:46:17.620Z,99.90
2023-05-15T19:48:44.498Z,99.90
2023-05-15T19:51:11.237Z,99.90
2023-05-15T19:53:37.844Z,99.90
2023-05-15T19:56:04.635Z,99.90
2023-05-15T19:58:31.841Z,99.90
2023-05-15T20:00:58.720Z,99.90
2023-05-15T20:03:33.195Z,99.90
2023-05-15T20:06:03.184Z,99.90
2023-05-15T20:08:29.972Z,99.90
2023-05-15T20:10:57.036Z,99.90
2023-05-15T20:13:24.019Z,99.90
2023-05-15T20:15:56.702Z,99.90
2023-05-15T20:18:24.362Z,99.90
2023-05-15T20:20:52.907Z,99.90
2023-05-15T20:23:20.302Z,99.90
2023-05-15T20:25:47.264Z,99.90
2023-05-15T20:28:13.849Z,99.90
2023-05-15T20:30:41.671Z,99.90
2023-05-15T20:33:08.429Z,99.90
2023-05-15T20:35:35.291Z,99.90
2023-05-15T20:38:04.619Z,99.90
2023-05-15T20:40:31.348Z,99.90
2023-05-15T20:42:59.207Z,99.90
2023-05-15T20:45:25.924Z,99.90
2023-05-15T20:47:52.647Z,99.90
2023-05-15T20:50:19.365Z,99.90
2023-05-15T20:54:03.868Z,99.90
2023-05-15T20:56:30.641Z,99.90
2023-05-15T20:58:59.628Z,99.90
2023-05-15T21:01:26.729Z,99.90
2023-05-15T21:03:53.544Z,99.90
2023-05-15T21:06:20.794Z,99.90
2023-05-15T21:08:47.578Z,99.90
2023-05-15T21:11:14.323Z,99.90
2023-05-15T21:13:41.038Z,99.90
2023-05-15T21:16:07.973Z,99.90
2023-05-15T21:18:34.768Z,99.90
2023-05-15T21:21:06.024Z,99.90
2023-05-15T21:23:33.745Z,99.90
2023-05-15T21:26:00.537Z,99.90
2023-05-15T21:28:27.531Z,99.90
2023-05-15T21:30:54.376Z,99.90
2023-05-15T21:33:21.208Z,99.90
2023-05-15T21:35:48.713Z,99.90
2023-05-15T21:38:16.278Z,99.90
2023-05-15T21:40:43.070Z,99.90
2023-05-15T21:43:09.752Z,99.90
2023-05-15T21:45:36.507Z,99.90
2023-05-15T21:48:03.781Z,99.90
2023-05-15T21:50:30.615Z,99.90
2023-05-15T21:52:57.414Z,99.90
2023-05-15T21:55:24.876Z,99.90
2023-05-15T21:57:51.581Z,99.90
2023-05-15T22:00:18.637Z,99.90
2023-05-15T22:02:45.621Z,99.90
2023-05-15T22:05:12.803Z,99.90
2023-05-15T22:07:40.435Z,99.90
2023-05-15T22:10:09.473Z,99.90
2023-05-15T22:12:36.490Z,99.90
2023-05-15T22:15:03.282Z,99.90
2023-05-15T22:17:30.558Z,99.90
2023-05-15T22:20:07.923Z,99.90
2023-05-15T22:22:35.477Z,99.90
2023-05-15T22:25:02.621Z,99.90
2023-05-15T22:27:29.464Z,99.90
2023-05-15T22:29:56.533Z,99.90
2023-05-15T22:32:23.459Z,99.90
2023-05-15T22:34:50.319Z,99.90
2023-05-15T22:37:17.380Z,99.90
2023-05-15T22:39:44.417Z,99.90
2023-05-15T22:42:11.216Z,99.90
2023-05-15T22:44:37.996Z,99.90
2023-05-15T22:47:05.039Z,99.90
2023-05-15T22:49:31.946Z,99.90
2023-05-15T22:51:58.637Z,99.90
2023-05-15T22:54:25.626Z,99.90
2023-05-15T22:56:52.919Z,99.90
2023-05-15T22:59:20.782Z,99.90
2023-05-15T23:01:49.147Z,99.90
2023-05-15T23:04:17.003Z,99.90
2023-05-15T23:06:44.367Z,99.90
2023-05-15T23:09:11.564Z,99.90
2023-05-15T23:11:38.297Z,99.90
2023-05-15T23:14:05.370Z,99.90
2023-05-15T23:16:32.177Z,99.90
2023-05-15T23:18:59.000Z,99.90
2023-05-15T23:21:26.256Z,99.90
2023-05-15T23:23:53.201Z,99.90
2023-05-15T23:26:20.032Z,99.90
2023-05-15T23:28:47.142Z,99.90
2023-05-15T23:31:14.359Z,99.90
2023-05-15T23:33:41.502Z,99.90
2023-05-15T23:36:08.711Z,99.90
2023-05-15T23:38:35.664Z,99.90
2023-05-15T23:41:02.550Z,99.90
2023-05-15T23:43:30.459Z,99.90
2023-05-15T23:45:57.264Z,99.90
2023-05-15T23:48:24.049Z,99.90
2023-05-15T23:50:52.299Z,99.90
2023-05-15T23:53:19.246Z,99.90
2023-05-15T23:55:45.927Z,99.90
2023-05-15T23:58:12.633Z,99.90
